Historyczne dane pomiarowe

Dodano dane terminowe – wersja testowa.

Dane z okresu 1951-2019

Wersja bazy: 1.34 [2019-03-16, lista zmian], aktualizacja planowana na 2019-04-15

Dane meteo z obszaru Polski uzyskane na podstawie danych udostępnionych przez Instytut Meteorologii i Gospodarki Wodnej – Państwowy Instytut Badawczy.

 

Wybierz Datę:    

       

TemperaturaWilgotnośćWiatrCiśnienieOpadyŚniegCzas trwania zjawisk
 Stacja t tx tn tng RH VA  wxwx mslp ppp RRR   cm mm wxwxwxwxwxwxwx
1991-03-15 7.8 15.0 -1.4--- 0.0 3.3---- 0.0------------
1991-03-14 3.5 9.4 -0.5--- 3.7 0.0---- 0.0------------
1991-03-13 4.5 11.4 -0.9--- 2.3 1.3---- 0.0------------
1991-03-12 4.4 8.5 0.5--- 6.7 1.3---- 0.0------------
1991-03-11 2.7 9.0 -0.6--- 4.0 1.3---- 0.0------------
1991-03-10 0.3 1.0 -0.4--- 8.0 6.3---- 0.0------------
1991-03-09 0.2 1.0 -0.5--- 8.0 7.3---- 0.0------------
1991-03-08 -1.5 0.9 -4.3--- 8.0 8.0---- 0.2------------
1991-03-07 -0.9 2.5 -2.6--- 3.0 5.0---- 0.0------------
1991-03-06 -0.9 0.9 -2.9--- 6.3 3.0---- 0.0------------
1991-03-05 2.2 5.4 0.0--- 6.3 1.0---- 0.0------------
1991-03-04 0.3 5.2 -7.2--- 7.3 3.7---- 0.0-- 13---------
1991-03-03 -2.2 1.0 -6.3--- 0.0 4.7---- 0.0-- 15---------
1991-03-02 -1.3 0.4 -2.5--- 5.0 6.0---- 0.0-- 15---------
1991-03-01 -0.6 0.8 -1.8--- 7.0 1.7---- 0.0-- 15---------
1991-02-28 -1.2 0.2 -2.9--- 8.0 3.3---- 0.2-- 15---------
1991-02-27 -1.0 0.7 -1.9--- 8.0 12.3---- 1.0-- 4---------
1991-02-26 1.0 3.0 0.1--- 8.0 6.0---- 2.5------------
1991-02-25 3.2 7.3 1.2--- 6.3 2.3---- 0.0-- 10---------
1991-02-24 1.1 3.0 -3.3--- 8.0 3.0---- 1.1-- 15---------
1991-02-23 0.4 3.6 -3.0--- 4.7 2.7---- 0.1-- 18---------
1991-02-22 -1.9 1.5 -6.3--- 6.7 1.3---- 0.0-- 20---------
1991-02-21 0.0 6.9 -5.4--- 3.0 1.3---- 0.0-- 22---------
1991-02-20 -1.7 2.0 -5.3--- 4.3 4.0---- 0.0-- 25---------
1991-02-19 -5.6 -1.2-12.6--- 0.0 1.7---- 0.0-- 25---------
1991-02-18 -3.0 -0.5 -6.3--- 4.3 8.0---- 1.0-- 25---------
1991-02-17 -4.7 -3.2 -8.3--- 8.0 8.0---- 1.2-- 20---------
1991-02-16-12.1 -6.5-20.0--- 4.0 1.3---- 0.4-- 16---------
1991-02-15 -8.3 -4.8-14.3--- 1.7 3.3---- 0.0-- 16---------
1991-02-14 -6.1 -4.5 -7.6--- 7.3 6.0---- 0.0-- 16---------
1991-02-13 -3.6 -2.0 -4.9--- 8.0 4.7---- 0.1-- 15---------
1991-02-12 -2.7 1.0 -4.3--- 8.0 0.0---- 5.5-- 10---------
1991-02-11 2.0 4.9 -1.1--- 8.0 1.3---- 3.0-- 10---------
1991-02-10 -3.1 0.5-10.3--- 8.0 1.0---- 0.8-- 10---------
1991-02-09 -4.0 -2.9 -5.8--- 8.0 4.0---- 0.9-- 8---------
1991-02-08 -6.7 -4.5 -9.3--- 8.0 9.3---- 0.4-- 6---------
1991-02-07 -9.5 -5.6-12.8--- 6.0 8.0---- 0.0-- 6---------
1991-02-06-11.1 -9.4-13.8--- 5.7 6.7---- 0.0-- 6---------
1991-02-05-16.4-12.8-19.8--- 4.7 7.3---- 0.0-- 6---------
1991-02-04-10.8 -7.9-12.9--- 7.3 4.3---- 0.2-- 5---------
1991-02-03 -8.4 -6.8-14.8--- 7.3 4.0---- 0.3-- 3---------
1991-02-02-14.8 -8.6-23.2--- 3.7 0.0---- 0.0-- 3---------
1991-02-01-20.9-14.0-24.8--- 0.0 0.7---- 0.0-- 3---------
1991-01-31-18.6-15.5-21.6--- 0.0 2.7---- 0.0-- 3---------
1991-01-30-10.3 -1.6-15.9--- 2.0 5.3---- 0.0-- 3---------
1991-01-29 -1.6 -0.5 -2.4--- 8.0 8.3---- 0.7-- 3---------
1991-01-28 -1.5 0.0 -3.3--- 8.0 3.3---- 1.1-- 1---------
1991-01-27 0.1 1.0 -1.0--- 8.0 3.0---- 0.0-- 1---------
1991-01-26 0.0 1.0 -3.3--- 8.0 8.7---- 0.5------------
1991-01-25 -2.1 0.0 -3.0--- 5.3 7.3---- 0.0------------
1991-01-24 -0.7 0.5 -2.4--- 8.0 8.7---- 0.1------------
1991-01-23 -1.4 0.4 -2.3--- 7.0 4.0---- 0.0------------
1991-01-22 -3.7 -1.9 -7.3--- 8.0 2.7---- 0.0------------
1991-01-21 -3.7 1.3 -7.8--- 0.0 0.7---- 0.0------------
1991-01-20 -6.3 0.2-11.4--- 0.0 1.3---- 0.0------------
1991-01-19 -5.1 -4.5 -5.8--- 8.0 3.3---- 0.0------------
1991-01-18 -5.4 -4.5 -9.3--- 8.0 3.0---- 0.0------------
1991-01-17 -5.1 -3.7 -7.4--- 8.0 4.0---- 0.0------------
1991-01-16 -5.4 -2.3 -9.9--- 0.0 2.3---- 0.0------------
1991-01-15 -4.0 -2.7 -7.3--- 8.0 4.0---- 0.0------------
450.6 ms

 

Źródłem pochodzenia danych jest Instytut Meteorologii i Gospodarki Wodnej – Państwowy Instytut Badawczy. Dane Instytutu Meteorologii i Gospodarki Wodnej – Państwowego Instytutu Badawczego zostały przetworzone.

Dane źródłowe można odnaleźć na stronie https://dane.imgw.pl